Colorado City, Arizona
Current Conditions -  °F | °C
As of 11:35 AM on Thursday 29 Jan 2015 (Local Time) from KAZC Reporting Station
Scattered Clouds Scattered Clouds  
Wind Chill: 55°   Ceiling: Unl
Heat Index: 55°   Visibility: 10mi
Dew Point: 32°   Wind: 13mph
Humidity: 41%   Direction: 60°ENE
Pressure: 30.29"   Gusts: 28mph
Location:  36.99°N, 112.98°W
Report Text: KAZC 291835Z AUTO 06011G24KT 10SM SCT100 13/00 A3029 RMK AO2 T01290000
Loading
Personal Weather Stations






























Interactive Weather Map New forecast layout! Learn more

10-Day Weather Forecast

Advertisements
Track Severe Weather on mobile